sensor_id;sensor_type;location;lat;lon;timestamp;P1;durP1;ratioP1;P2;durP2;ratioP2
56073;SDS011;41950;55.840;37.442;2024-01-11T00:01:12;4.53;;;2.22;;
56073;SDS011;41950;55.840;37.442;2024-01-11T00:03:39;7.13;;;3.00;;
56073;SDS011;41950;55.840;37.442;2024-01-11T00:06:05;4.93;;;2.50;;
56073;SDS011;41950;55.840;37.442;2024-01-11T00:08:30;4.22;;;1.75;;
56073;SDS011;41950;55.840;37.442;2024-01-11T00:10:56;3.15;;;1.50;;
56073;SDS011;41950;55.840;37.442;2024-01-11T00:13:22;5.32;;;2.88;;
56073;SDS011;41950;55.840;37.442;2024-01-11T00:15:47;4.50;;;2.30;;
56073;SDS011;41950;55.840;37.442;2024-01-11T00:18:13;4.30;;;2.28;;
56073;SDS011;41950;55.840;37.442;2024-01-11T00:20:39;3.05;;;1.70;;
56073;SDS011;41950;55.840;37.442;2024-01-11T00:23:04;4.93;;;2.28;;
56073;SDS011;41950;55.840;37.442;2024-01-11T00:25:30;4.47;;;2.05;;
56073;SDS011;41950;55.840;37.442;2024-01-11T00:27:56;3.33;;;1.88;;
56073;SDS011;41950;55.840;37.442;2024-01-11T00:30:21;4.85;;;2.42;;
56073;SDS011;41950;55.840;37.442;2024-01-11T00:32:48;5.00;;;2.60;;
56073;SDS011;41950;55.840;37.442;2024-01-11T00:35:14;4.05;;;1.85;;
56073;SDS011;41950;55.840;37.442;2024-01-11T00:37:39;4.85;;;2.70;;
56073;SDS011;41950;55.840;37.442;2024-01-11T00:40:06;5.20;;;2.60;;
56073;SDS011;41950;55.840;37.442;2024-01-11T00:42:32;2.88;;;1.23;;
56073;SDS011;41950;55.840;37.442;2024-01-11T00:45:01;3.80;;;2.15;;
56073;SDS011;41950;55.840;37.442;2024-01-11T00:47:29;5.00;;;2.78;;
56073;SDS011;41950;55.840;37.442;2024-01-11T00:49:55;4.07;;;2.50;;
56073;SDS011;41950;55.840;37.442;2024-01-11T00:52:20;3.45;;;1.63;;
56073;SDS011;41950;55.840;37.442;2024-01-11T00:54:46;4.45;;;2.42;;
56073;SDS011;41950;55.840;37.442;2024-01-11T00:57:12;4.32;;;2.22;;
56073;SDS011;41950;55.840;37.442;2024-01-11T00:59:39;3.50;;;1.90;;
56073;SDS011;41950;55.840;37.442;2024-01-11T01:02:05;4.38;;;1.90;;
56073;SDS011;41950;55.840;37.442;2024-01-11T01:04:31;4.45;;;1.90;;
56073;SDS011;41950;55.840;37.442;2024-01-11T01:06:56;4.05;;;1.90;;
56073;SDS011;41950;55.840;37.442;2024-01-11T01:09:22;3.78;;;2.03;;
56073;SDS011;41950;55.840;37.442;2024-01-11T01:11:48;3.25;;;1.58;;
56073;SDS011;41950;55.840;37.442;2024-01-11T01:14:14;1.88;;;0.80;;
56073;SDS011;41950;55.840;37.442;2024-01-11T01:16:39;3.38;;;2.08;;
56073;SDS011;41950;55.840;37.442;2024-01-11T01:19:05;3.90;;;2.28;;
56073;SDS011;41950;55.840;37.442;2024-01-11T01:21:31;4.18;;;1.80;;
56073;SDS011;41950;55.840;37.442;2024-01-11T01:23:56;4.22;;;1.85;;
56073;SDS011;41950;55.840;37.442;2024-01-11T01:26:22;2.38;;;0.77;;
56073;SDS011;41950;55.840;37.442;2024-01-11T01:28:48;2.92;;;1.55;;
56073;SDS011;41950;55.840;37.442;2024-01-11T01:31:13;2.90;;;1.40;;
56073;SDS011;41950;55.840;37.442;2024-01-11T01:33:39;4.57;;;1.65;;
56073;SDS011;41950;55.840;37.442;2024-01-11T01:36:07;2.15;;;1.10;;
56073;SDS011;41950;55.840;37.442;2024-01-11T01:38:35;3.47;;;1.70;;
56073;SDS011;41950;55.840;37.442;2024-01-11T01:41:01;4.25;;;1.77;;
56073;SDS011;41950;55.840;37.442;2024-01-11T01:43:26;2.55;;;1.35;;
56073;SDS011;41950;55.840;37.442;2024-01-11T01:45:52;4.50;;;1.55;;
56073;SDS011;41950;55.840;37.442;2024-01-11T01:48:19;3.42;;;1.50;;
56073;SDS011;41950;55.840;37.442;2024-01-11T01:50:46;3.75;;;1.60;;
56073;SDS011;41950;55.840;37.442;2024-01-11T01:53:22;3.22;;;1.65;;
56073;SDS011;41950;55.840;37.442;2024-01-11T01:55:49;3.30;;;1.70;;
56073;SDS011;41950;55.840;37.442;2024-01-11T01:58:17;2.70;;;1.33;;
56073;SDS011;41950;55.840;37.442;2024-01-11T02:00:44;3.90;;;1.90;;
56073;SDS011;41950;55.840;37.442;2024-01-11T02:03:12;3.58;;;1.60;;
56073;SDS011;41950;55.840;37.442;2024-01-11T02:05:41;3.88;;;1.70;;
56073;SDS011;41950;55.840;37.442;2024-01-11T02:08:07;3.65;;;1.73;;
56073;SDS011;41950;55.840;37.442;2024-01-11T02:10:37;4.30;;;1.95;;
56073;SDS011;41950;55.840;37.442;2024-01-11T02:13:03;3.05;;;1.60;;
56073;SDS011;41950;55.840;37.442;2024-01-11T02:15:30;3.75;;;2.10;;
56073;SDS011;41950;55.840;37.442;2024-01-11T02:17:55;3.55;;;1.58;;
56073;SDS011;41950;55.840;37.442;2024-01-11T02:20:21;2.88;;;1.10;;
56073;SDS011;41950;55.840;37.442;2024-01-11T02:22:47;3.42;;;1.65;;
56073;SDS011;41950;55.840;37.442;2024-01-11T02:25:18;2.80;;;1.55;;
56073;SDS011;41950;55.840;37.442;2024-01-11T02:27:47;4.20;;;1.73;;
56073;SDS011;41950;55.840;37.442;2024-01-11T02:30:14;3.78;;;1.45;;
56073;SDS011;41950;55.840;37.442;2024-01-11T02:32:40;3.10;;;1.50;;
56073;SDS011;41950;55.840;37.442;2024-01-11T02:35:09;4.40;;;1.63;;
56073;SDS011;41950;55.840;37.442;2024-01-11T02:37:36;4.88;;;1.67;;
56073;SDS011;41950;55.840;37.442;2024-01-11T02:40:03;3.13;;;1.50;;
56073;SDS011;41950;55.840;37.442;2024-01-11T02:42:29;2.35;;;1.08;;
56073;SDS011;41950;55.840;37.442;2024-01-11T02:44:55;4.05;;;1.38;;
56073;SDS011;41950;55.840;37.442;2024-01-11T02:47:20;2.58;;;1.33;;
56073;SDS011;41950;55.840;37.442;2024-01-11T02:49:46;2.83;;;1.10;;
56073;SDS011;41950;55.840;37.442;2024-01-11T02:52:11;2.85;;;1.25;;
56073;SDS011;41950;55.840;37.442;2024-01-11T02:54:37;3.42;;;1.15;;
56073;SDS011;41950;55.840;37.442;2024-01-11T02:57:03;3.63;;;1.20;;
56073;SDS011;41950;55.840;37.442;2024-01-11T02:59:29;2.65;;;1.10;;
56073;SDS011;41950;55.840;37.442;2024-01-11T03:01:55;2.33;;;1.10;;
56073;SDS011;41950;55.840;37.442;2024-01-11T03:04:20;2.53;;;1.20;;
56073;SDS011;41950;55.840;37.442;2024-01-11T03:06:46;2.80;;;1.52;;
56073;SDS011;41950;55.840;37.442;2024-01-11T03:09:12;2.00;;;0.80;;
56073;SDS011;41950;55.840;37.442;2024-01-11T03:11:37;4.72;;;1.88;;
56073;SDS011;41950;55.840;37.442;2024-01-11T03:14:03;2.20;;;0.88;;
56073;SDS011;41950;55.840;37.442;2024-01-11T03:16:29;2.28;;;0.82;;
56073;SDS011;41950;55.840;37.442;2024-01-11T03:18:55;2.35;;;0.95;;
56073;SDS011;41950;55.840;37.442;2024-01-11T03:21:20;2.22;;;0.68;;
56073;SDS011;41950;55.840;37.442;2024-01-11T03:23:46;2.97;;;0.90;;
56073;SDS011;41950;55.840;37.442;2024-01-11T03:26:20;2.45;;;0.80;;
56073;SDS011;41950;55.840;37.442;2024-01-11T03:28:46;1.85;;;0.70;;
56073;SDS011;41950;55.840;37.442;2024-01-11T03:31:12;1.73;;;0.68;;
56073;SDS011;41950;55.840;37.442;2024-01-11T03:33:37;1.90;;;0.68;;
56073;SDS011;41950;55.840;37.442;2024-01-11T03:36:07;2.97;;;1.20;;
56073;SDS011;41950;55.840;37.442;2024-01-11T03:38:34;2.28;;;1.00;;
56073;SDS011;41950;55.840;37.442;2024-01-11T03:40:59;2.75;;;1.02;;
56073;SDS011;41950;55.840;37.442;2024-01-11T03:43:25;2.58;;;1.05;;
56073;SDS011;41950;55.840;37.442;2024-01-11T03:45:51;1.35;;;0.68;;
56073;SDS011;41950;55.840;37.442;2024-01-11T03:48:16;1.55;;;0.80;;
56073;SDS011;41950;55.840;37.442;2024-01-11T03:50:42;1.63;;;0.70;;
56073;SDS011;41950;55.840;37.442;2024-01-11T03:53:08;1.95;;;0.77;;
56073;SDS011;41950;55.840;37.442;2024-01-11T03:55:33;2.10;;;0.80;;
56073;SDS011;41950;55.840;37.442;2024-01-11T03:57:59;1.38;;;0.60;;
56073;SDS011;41950;55.840;37.442;2024-01-11T04:00:25;1.73;;;0.52;;
56073;SDS011;41950;55.840;37.442;2024-01-11T04:02:50;1.00;;;0.32;;
56073;SDS011;41950;55.840;37.442;2024-01-11T04:05:16;1.45;;;0.80;;
56073;SDS011;41950;55.840;37.442;2024-01-11T04:07:42;0.70;;;0.40;;
56073;SDS011;41950;55.840;37.442;2024-01-11T04:10:07;1.40;;;0.60;;
56073;SDS011;41950;55.840;37.442;2024-01-11T04:12:36;1.25;;;0.52;;
56073;SDS011;41950;55.840;37.442;2024-01-11T04:15:02;2.55;;;1.15;;
56073;SDS011;41950;55.840;37.442;2024-01-11T04:17:29;2.20;;;0.90;;
56073;SDS011;41950;55.840;37.442;2024-01-11T04:19:54;3.67;;;0.90;;
56073;SDS011;41950;55.840;37.442;2024-01-11T04:22:20;2.90;;;0.98;;
56073;SDS011;41950;55.840;37.442;2024-01-11T04:24:48;2.13;;;0.80;;
56073;SDS011;41950;55.840;37.442;2024-01-11T04:27:17;1.60;;;0.70;;
56073;SDS011;41950;55.840;37.442;2024-01-11T04:29:43;1.60;;;0.70;;
56073;SDS011;41950;55.840;37.442;2024-01-11T04:32:08;2.15;;;0.70;;
56073;SDS011;41950;55.840;37.442;2024-01-11T04:34:34;0.57;;;0.30;;
56073;SDS011;41950;55.840;37.442;2024-01-11T04:37:00;1.95;;;0.90;;
56073;SDS011;41950;55.840;37.442;2024-01-11T04:39:25;1.70;;;0.60;;
56073;SDS011;41950;55.840;37.442;2024-01-11T04:41:51;1.60;;;0.73;;
56073;SDS011;41950;55.840;37.442;2024-01-11T04:44:16;1.48;;;0.65;;
56073;SDS011;41950;55.840;37.442;2024-01-11T04:46:45;1.23;;;0.50;;
56073;SDS011;41950;55.840;37.442;2024-01-11T04:49:10;2.45;;;0.88;;
56073;SDS011;41950;55.840;37.442;2024-01-11T04:51:36;1.40;;;0.60;;
56073;SDS011;41950;55.840;37.442;2024-01-11T04:54:02;3.05;;;1.02;;
56073;SDS011;41950;55.840;37.442;2024-01-11T04:56:27;1.80;;;0.90;;
56073;SDS011;41950;55.840;37.442;2024-01-11T04:58:54;3.03;;;0.90;;
56073;SDS011;41950;55.840;37.442;2024-01-11T05:01:20;3.22;;;0.90;;
56073;SDS011;41950;55.840;37.442;2024-01-11T05:03:49;2.03;;;0.80;;
56073;SDS011;41950;55.840;37.442;2024-01-11T05:06:15;1.05;;;0.52;;
56073;SDS011;41950;55.840;37.442;2024-01-11T05:11:15;2.00;;;0.73;;
56073;SDS011;41950;55.840;37.442;2024-01-11T05:13:42;1.45;;;0.70;;
56073;SDS011;41950;55.840;37.442;2024-01-11T05:16:15;2.17;;;0.70;;
56073;SDS011;41950;55.840;37.442;2024-01-11T05:18:48;1.58;;;0.70;;
56073;SDS011;41950;55.840;37.442;2024-01-11T05:21:14;2.65;;;0.80;;
56073;SDS011;41950;55.840;37.442;2024-01-11T05:23:40;2.70;;;0.80;;
56073;SDS011;41950;55.840;37.442;2024-01-11T05:26:07;1.67;;;0.65;;
56073;SDS011;41950;55.840;37.442;2024-01-11T05:28:33;1.25;;;0.50;;
56073;SDS011;41950;55.840;37.442;2024-01-11T05:30:59;1.90;;;0.75;;
56073;SDS011;41950;55.840;37.442;2024-01-11T05:33:25;1.80;;;0.47;;
56073;SDS011;41950;55.840;37.442;2024-01-11T05:35:51;1.33;;;0.60;;
56073;SDS011;41950;55.840;37.442;2024-01-11T05:38:19;1.30;;;0.52;;
56073;SDS011;41950;55.840;37.442;2024-01-11T05:40:45;1.60;;;0.40;;
56073;SDS011;41950;55.840;37.442;2024-01-11T05:43:11;1.30;;;0.43;;
56073;SDS011;41950;55.840;37.442;2024-01-11T05:45:37;1.85;;;0.80;;
56073;SDS011;41950;55.840;37.442;2024-01-11T05:48:03;1.40;;;0.50;;
56073;SDS011;41950;55.840;37.442;2024-01-11T05:50:31;2.17;;;0.60;;
56073;SDS011;41950;55.840;37.442;2024-01-11T05:52:56;1.70;;;0.70;;
56073;SDS011;41950;55.840;37.442;2024-01-11T05:55:22;1.17;;;0.47;;
56073;SDS011;41950;55.840;37.442;2024-01-11T05:57:48;2.03;;;0.60;;
56073;SDS011;41950;55.840;37.442;2024-01-11T06:00:14;1.27;;;0.50;;
56073;SDS011;41950;55.840;37.442;2024-01-11T06:02:40;1.77;;;0.77;;
56073;SDS011;41950;55.840;37.442;2024-01-11T06:05:09;1.08;;;0.50;;
56073;SDS011;41950;55.840;37.442;2024-01-11T06:07:35;1.15;;;0.50;;
56073;SDS011;41950;55.840;37.442;2024-01-11T06:10:01;2.20;;;0.50;;
56073;SDS011;41950;55.840;37.442;2024-01-11T06:12:29;1.20;;;0.50;;
56073;SDS011;41950;55.840;37.442;2024-01-11T06:14:54;1.38;;;0.50;;
56073;SDS011;41950;55.840;37.442;2024-01-11T06:17:20;1.25;;;0.57;;
56073;SDS011;41950;55.840;37.442;2024-01-11T06:19:46;1.52;;;0.60;;
56073;SDS011;41950;55.840;37.442;2024-01-11T06:22:14;1.35;;;0.50;;
56073;SDS011;41950;55.840;37.442;2024-01-11T06:24:39;1.13;;;0.47;;
56073;SDS011;41950;55.840;37.442;2024-01-11T06:27:05;2.45;;;0.70;;
56073;SDS011;41950;55.840;37.442;2024-01-11T06:29:31;0.98;;;0.40;;
56073;SDS011;41950;55.840;37.442;2024-01-11T06:31:57;8.10;;;1.02;;
56073;SDS011;41950;55.840;37.442;2024-01-11T06:34:23;1.10;;;0.52;;
56073;SDS011;41950;55.840;37.442;2024-01-11T06:36:48;2.08;;;0.60;;
56073;SDS011;41950;55.840;37.442;2024-01-11T06:39:14;0.80;;;0.40;;
56073;SDS011;41950;55.840;37.442;2024-01-11T06:41:40;0.98;;;0.50;;
56073;SDS011;41950;55.840;37.442;2024-01-11T06:44:05;1.55;;;0.60;;
56073;SDS011;41950;55.840;37.442;2024-01-11T06:46:31;2.33;;;1.00;;
56073;SDS011;41950;55.840;37.442;2024-01-11T06:48:57;1.35;;;0.55;;
56073;SDS011;41950;55.840;37.442;2024-01-11T06:51:22;1.30;;;0.30;;
56073;SDS011;41950;55.840;37.442;2024-01-11T06:53:49;0.90;;;0.40;;
56073;SDS011;41950;55.840;37.442;2024-01-11T06:56:15;0.38;;;0.17;;
56073;SDS011;41950;55.840;37.442;2024-01-11T06:58:42;1.42;;;0.50;;
56073;SDS011;41950;55.840;37.442;2024-01-11T07:01:09;0.95;;;0.47;;
56073;SDS011;41950;55.840;37.442;2024-01-11T07:03:34;1.27;;;0.60;;
56073;SDS011;41950;55.840;37.442;2024-01-11T07:06:00;2.53;;;0.60;;
56073;SDS011;41950;55.840;37.442;2024-01-11T07:08:26;1.15;;;0.40;;
56073;SDS011;41950;55.840;37.442;2024-01-11T07:10:51;1.42;;;0.68;;
56073;SDS011;41950;55.840;37.442;2024-01-11T07:13:17;2.33;;;0.80;;
56073;SDS011;41950;55.840;37.442;2024-01-11T07:15:43;1.00;;;0.50;;
56073;SDS011;41950;55.840;37.442;2024-01-11T07:18:09;3.08;;;0.95;;
56073;SDS011;41950;55.840;37.442;2024-01-11T07:20:34;2.63;;;0.77;;
56073;SDS011;41950;55.840;37.442;2024-01-11T07:23:00;1.77;;;0.60;;
56073;SDS011;41950;55.840;37.442;2024-01-11T07:25:26;1.75;;;0.70;;
56073;SDS011;41950;55.840;37.442;2024-01-11T07:27:52;2.25;;;0.70;;
56073;SDS011;41950;55.840;37.442;2024-01-11T07:30:17;1.77;;;0.65;;
56073;SDS011;41950;55.840;37.442;2024-01-11T07:32:44;1.80;;;0.60;;
56073;SDS011;41950;55.840;37.442;2024-01-11T07:35:10;1.02;;;0.28;;
56073;SDS011;41950;55.840;37.442;2024-01-11T07:37:37;2.20;;;0.70;;
56073;SDS011;41950;55.840;37.442;2024-01-11T07:40:04;2.67;;;0.68;;
56073;SDS011;41950;55.840;37.442;2024-01-11T07:42:35;1.73;;;0.60;;
56073;SDS011;41950;55.840;37.442;2024-01-11T07:45:02;1.88;;;0.70;;
56073;SDS011;41950;55.840;37.442;2024-01-11T07:47:29;2.13;;;0.73;;
56073;SDS011;41950;55.840;37.442;2024-01-11T07:49:54;1.52;;;0.65;;
56073;SDS011;41950;55.840;37.442;2024-01-11T07:52:20;3.70;;;0.80;;
56073;SDS011;41950;55.840;37.442;2024-01-11T07:54:46;2.20;;;0.90;;
56073;SDS011;41950;55.840;37.442;2024-01-11T07:57:12;3.10;;;1.00;;
56073;SDS011;41950;55.840;37.442;2024-01-11T07:59:38;2.30;;;0.90;;
56073;SDS011;41950;55.840;37.442;2024-01-11T08:02:04;7.10;;;1.35;;
56073;SDS011;41950;55.840;37.442;2024-01-11T08:04:31;0.70;;;0.40;;
56073;SDS011;41950;55.840;37.442;2024-01-11T08:06:57;1.77;;;0.60;;
56073;SDS011;41950;55.840;37.442;2024-01-11T08:09:27;1.75;;;0.70;;
56073;SDS011;41950;55.840;37.442;2024-01-11T08:11:53;1.90;;;0.77;;
56073;SDS011;41950;55.840;37.442;2024-01-11T08:14:20;1.50;;;0.68;;
56073;SDS011;41950;55.840;37.442;2024-01-11T08:16:46;1.60;;;0.60;;
56073;SDS011;41950;55.840;37.442;2024-01-11T08:19:12;2.08;;;0.73;;
56073;SDS011;41950;55.840;37.442;2024-01-11T08:21:42;1.63;;;0.40;;
56073;SDS011;41950;55.840;37.442;2024-01-11T08:24:08;1.80;;;0.75;;
56073;SDS011;41950;55.840;37.442;2024-01-11T08:27:04;2.65;;;0.70;;
56073;SDS011;41950;55.840;37.442;2024-01-11T08:29:31;1.52;;;0.60;;
56073;SDS011;41950;55.840;37.442;2024-01-11T08:31:57;3.53;;;0.80;;
56073;SDS011;41950;55.840;37.442;2024-01-11T08:34:23;2.20;;;0.70;;
56073;SDS011;41950;55.840;37.442;2024-01-11T08:36:51;2.88;;;0.77;;
56073;SDS011;41950;55.840;37.442;2024-01-11T08:39:17;1.00;;;0.43;;
56073;SDS011;41950;55.840;37.442;2024-01-11T08:41:43;1.90;;;0.60;;
56073;SDS011;41950;55.840;37.442;2024-01-11T08:44:09;2.90;;;0.80;;
56073;SDS011;41950;55.840;37.442;2024-01-11T08:46:34;1.50;;;0.52;;
56073;SDS011;41950;55.840;37.442;2024-01-11T08:49:00;2.63;;;0.70;;
56073;SDS011;41950;55.840;37.442;2024-01-11T08:51:29;2.22;;;0.45;;
56073;SDS011;41950;55.840;37.442;2024-01-11T08:53:55;0.47;;;0.20;;
56073;SDS011;41950;55.840;37.442;2024-01-11T08:56:21;0.38;;;0.20;;
56073;SDS011;41950;55.840;37.442;2024-01-11T08:58:46;0.60;;;0.20;;
56073;SDS011;41950;55.840;37.442;2024-01-11T09:01:13;0.77;;;0.20;;
56073;SDS011;41950;55.840;37.442;2024-01-11T09:03:39;0.35;;;0.20;;
56073;SDS011;41950;55.840;37.442;2024-01-11T09:06:05;1.75;;;0.40;;
56073;SDS011;41950;55.840;37.442;2024-01-11T09:08:31;0.82;;;0.38;;
56073;SDS011;41950;55.840;37.442;2024-01-11T09:10:57;0.90;;;0.50;;
56073;SDS011;41950;55.840;37.442;2024-01-11T09:13:23;1.65;;;0.70;;
56073;SDS011;41950;55.840;37.442;2024-01-11T09:15:51;0.73;;;0.30;;
56073;SDS011;41950;55.840;37.442;2024-01-11T09:18:17;1.40;;;0.70;;
56073;SDS011;41950;55.840;37.442;2024-01-11T09:20:43;1.63;;;0.70;;
56073;SDS011;41950;55.840;37.442;2024-01-11T09:23:09;0.55;;;0.40;;
56073;SDS011;41950;55.840;37.442;2024-01-11T09:25:36;2.30;;;1.13;;
56073;SDS011;41950;55.840;37.442;2024-01-11T09:28:02;0.93;;;0.38;;
56073;SDS011;41950;55.840;37.442;2024-01-11T09:30:28;1.42;;;0.70;;
56073;SDS011;41950;55.840;37.442;2024-01-11T09:32:54;0.90;;;0.47;;
56073;SDS011;41950;55.840;37.442;2024-01-11T09:35:21;2.80;;;1.23;;
56073;SDS011;41950;55.840;37.442;2024-01-11T09:37:48;2.22;;;1.08;;
56073;SDS011;41950;55.840;37.442;2024-01-11T09:40:17;3.20;;;1.17;;
56073;SDS011;41950;55.840;37.442;2024-01-11T09:42:44;2.20;;;0.90;;
56073;SDS011;41950;55.840;37.442;2024-01-11T09:45:12;1.60;;;0.70;;
56073;SDS011;41950;55.840;37.442;2024-01-11T09:47:39;2.88;;;1.10;;
56073;SDS011;41950;55.840;37.442;2024-01-11T09:50:06;1.60;;;0.43;;
56073;SDS011;41950;55.840;37.442;2024-01-11T09:52:32;1.65;;;0.75;;
56073;SDS011;41950;55.840;37.442;2024-01-11T09:55:01;1.38;;;0.60;;
56073;SDS011;41950;55.840;37.442;2024-01-11T09:57:29;1.40;;;0.57;;
56073;SDS011;41950;55.840;37.442;2024-01-11T09:59:57;1.50;;;0.75;;
56073;SDS011;41950;55.840;37.442;2024-01-11T10:02:24;0.75;;;0.40;;
56073;SDS011;41950;55.840;37.442;2024-01-11T10:04:53;1.58;;;0.75;;
56073;SDS011;41950;55.840;37.442;2024-01-11T10:07:25;0.90;;;0.40;;
56073;SDS011;41950;55.840;37.442;2024-01-11T10:09:55;0.38;;;0.28;;
